createdAt,value
2022-11-10T00:02:02.853Z,6.68
2022-11-10T00:04:48.689Z,7.03
2022-11-10T00:07:33.910Z,9.60
2022-11-10T00:10:18.989Z,6.93
2022-11-10T00:13:04.266Z,4.10
2022-11-10T00:16:08.092Z,5.07
2022-11-10T00:18:53.356Z,8.52
2022-11-10T00:21:38.363Z,4.28
2022-11-10T00:24:23.905Z,6.97
2022-11-10T00:27:09.063Z,4.57
2022-11-10T00:29:54.077Z,5.55
2022-11-10T00:32:39.337Z,5.13
2022-11-10T00:35:24.135Z,5.43
2022-11-10T00:38:09.070Z,6.10
2022-11-10T00:40:54.013Z,7.05
2022-11-10T00:43:38.943Z,8.10
2022-11-10T00:46:24.164Z,5.30
2022-11-10T00:49:09.411Z,8.27
2022-11-10T00:51:54.581Z,6.18
2022-11-10T00:54:39.847Z,9.65
2022-11-10T00:57:24.787Z,7.63
2022-11-10T01:00:10.062Z,8.05
2022-11-10T01:02:55.742Z,8.55
2022-11-10T01:05:41.393Z,9.48
2022-11-10T01:08:26.364Z,8.52
2022-11-10T01:11:23.166Z,8.23
2022-11-10T01:14:08.451Z,8.13
2022-11-10T01:16:53.560Z,7.45
2022-11-10T01:19:38.839Z,6.07
2022-11-10T01:22:23.706Z,6.18
2022-11-10T01:25:09.042Z,4.57
2022-11-10T01:27:53.896Z,5.05
2022-11-10T01:30:38.761Z,4.57
2022-11-10T01:33:24.149Z,7.80
2022-11-10T01:36:10.988Z,5.95
2022-11-10T01:38:56.156Z,4.88
2022-11-10T01:41:41.248Z,7.38
2022-11-10T01:44:26.715Z,6.78
2022-11-10T01:47:11.891Z,5.88
2022-11-10T01:49:56.938Z,6.97
2022-11-10T01:52:45.015Z,4.00
2022-11-10T01:55:31.855Z,4.47
2022-11-10T01:58:20.881Z,4.10
2022-11-10T02:01:09.556Z,4.32
2022-11-10T02:04:01.930Z,4.53
2022-11-10T02:06:49.652Z,5.03
2022-11-10T02:09:34.907Z,5.57
2022-11-10T02:12:36.706Z,3.47
2022-11-10T02:15:22.093Z,4.88
2022-11-10T02:18:07.437Z,6.72
2022-11-10T02:20:52.355Z,5.35
2022-11-10T02:23:37.242Z,4.85
2022-11-10T02:26:27.264Z,4.10
2022-11-10T02:29:13.169Z,6.28
2022-11-10T02:31:58.529Z,3.45
2022-11-10T02:34:43.907Z,5.10
2022-11-10T02:37:29.162Z,6.43
2022-11-10T02:40:14.269Z,4.30
2022-11-10T02:42:59.285Z,5.00
2022-11-10T02:45:44.977Z,5.50
2022-11-10T02:48:30.239Z,4.78
2022-11-10T02:51:15.419Z,5.55
2022-11-10T02:54:00.629Z,4.80
2022-11-10T02:56:45.951Z,5.65
2022-11-10T02:59:31.244Z,5.07
2022-11-10T03:02:16.261Z,8.73
2022-11-10T03:05:01.623Z,4.65
2022-11-10T03:07:53.268Z,5.38
2022-11-10T03:10:38.448Z,6.13
2022-11-10T03:13:25.323Z,6.00
2022-11-10T03:16:10.961Z,4.68
2022-11-10T03:18:55.841Z,5.90
2022-11-10T03:21:40.908Z,4.60
2022-11-10T03:24:25.747Z,5.38
2022-11-10T03:27:10.587Z,4.00
2022-11-10T03:29:55.666Z,4.03
2022-11-10T03:32:40.907Z,4.38
2022-11-10T03:35:26.395Z,4.65
2022-11-10T03:38:11.432Z,5.65
2022-11-10T03:41:18.160Z,5.03
2022-11-10T03:44:02.127Z,7.50
2022-11-10T03:46:51.449Z,4.82
2022-11-10T03:49:36.809Z,4.10
2022-11-10T03:52:21.764Z,8.43
2022-11-10T03:55:07.399Z,5.07
2022-11-10T03:57:52.597Z,3.90
2022-11-10T04:00:37.523Z,5.28
2022-11-10T04:03:23.447Z,5.53
2022-11-10T04:06:30.349Z,5.40
2022-11-10T04:09:15.539Z,4.95
2022-11-10T04:12:24.469Z,5.85
2022-11-10T04:15:29.774Z,4.60
2022-11-10T04:18:23.648Z,4.72
2022-11-10T04:21:08.787Z,6.28
2022-11-10T04:23:54.064Z,5.15
2022-11-10T04:26:40.392Z,4.70
2022-11-10T04:29:25.403Z,7.40
2022-11-10T04:32:10.367Z,7.00
2022-11-10T04:34:55.524Z,6.88
2022-11-10T04:37:40.848Z,5.40
2022-11-10T04:40:25.770Z,3.70
2022-11-10T04:43:11.038Z,6.15
2022-11-10T04:45:56.899Z,6.25
2022-11-10T04:48:41.864Z,5.25
2022-11-10T04:51:33.295Z,4.50
2022-11-10T04:54:18.530Z,5.30
2022-11-10T04:57:03.498Z,5.22
2022-11-10T04:59:48.660Z,4.35
2022-11-10T05:02:39.250Z,5.10
2022-11-10T05:05:24.787Z,3.88
2022-11-10T05:08:10.313Z,4.60
2022-11-10T05:10:55.220Z,4.05
2022-11-10T05:13:40.546Z,3.85
2022-11-10T05:16:25.479Z,5.85
2022-11-10T05:19:10.504Z,5.20
2022-11-10T05:21:55.919Z,4.35
2022-11-10T05:24:40.817Z,5.07
2022-11-10T05:27:25.767Z,4.80
2022-11-10T05:30:11.144Z,6.78
2022-11-10T05:32:56.556Z,5.93
2022-11-10T05:35:41.773Z,8.25
2022-11-10T05:38:27.244Z,8.32
2022-11-10T05:41:12.484Z,6.50
2022-11-10T05:43:57.414Z,9.60
2022-11-10T05:46:42.719Z,5.55
2022-11-10T05:49:27.601Z,5.80
2022-11-10T05:52:13.467Z,6.95
2022-11-10T05:54:58.752Z,8.90
2022-11-10T05:57:45.256Z,6.22
2022-11-10T06:00:31.637Z,6.07
2022-11-10T06:03:18.622Z,7.10
2022-11-10T06:06:04.104Z,5.07
2022-11-10T06:08:49.124Z,6.85
2022-11-10T06:11:33.935Z,4.80
2022-11-10T06:14:18.980Z,9.35
2022-11-10T06:17:03.749Z,18.65
2022-11-10T06:19:48.708Z,25.17
2022-11-10T06:22:33.712Z,30.02
2022-11-10T06:25:18.958Z,30.27
2022-11-10T06:28:05.133Z,27.55
2022-11-10T06:30:50.403Z,27.38
2022-11-10T06:33:35.573Z,17.83
2022-11-10T06:36:20.586Z,13.88
2022-11-10T06:39:05.572Z,11.70
2022-11-10T06:41:50.444Z,13.98
2022-11-10T06:44:35.432Z,10.90
2022-11-10T06:47:20.480Z,7.10
2022-11-10T06:50:05.716Z,8.63
2022-11-10T06:52:55.456Z,8.77
2022-11-10T06:55:40.629Z,6.47
2022-11-10T06:58:25.713Z,6.70
2022-11-10T07:01:10.715Z,6.40
2022-11-10T07:04:18.176Z,10.88
2022-11-10T07:07:00.622Z,5.20
2022-11-10T07:09:46.140Z,9.35
2022-11-10T07:12:31.154Z,8.93
2022-11-10T07:15:16.034Z,8.60
2022-11-10T07:18:08.637Z,7.85
2022-11-10T07:20:53.649Z,9.23
2022-11-10T07:23:38.574Z,9.85
2022-11-10T07:26:23.586Z,9.30
2022-11-10T07:29:08.496Z,7.60
2022-11-10T07:31:53.757Z,6.78
2022-11-10T07:34:38.881Z,11.52
2022-11-10T07:37:23.781Z,7.93
2022-11-10T07:40:09.245Z,9.93
2022-11-10T07:42:54.460Z,9.60
2022-11-10T07:45:39.709Z,8.82
2022-11-10T07:48:24.673Z,8.18
2022-11-10T07:51:09.551Z,10.38
2022-11-10T07:53:54.391Z,12.30
2022-11-10T07:56:40.427Z,10.05
2022-11-10T07:59:25.510Z,7.00
2022-11-10T08:02:11.793Z,10.80
2022-11-10T08:04:57.048Z,9.00
2022-11-10T08:07:42.169Z,10.68
2022-11-10T08:10:28.721Z,8.52
2022-11-10T08:13:13.928Z,9.48
2022-11-10T08:15:59.445Z,13.00
2022-11-10T08:18:44.683Z,11.68
2022-11-10T08:21:29.660Z,8.30
2022-11-10T08:24:14.603Z,9.70
2022-11-10T08:26:59.579Z,12.50
2022-11-10T08:29:44.533Z,9.13
2022-11-10T08:32:30.232Z,10.60
2022-11-10T08:35:15.295Z,10.20
2022-11-10T08:38:25.757Z,9.77
2022-11-10T08:41:10.737Z,10.40
2022-11-10T08:43:55.572Z,9.80
2022-11-10T08:46:40.443Z,8.63
2022-11-10T08:49:25.404Z,12.02
2022-11-10T08:52:11.045Z,9.93
2022-11-10T08:54:56.213Z,12.38
2022-11-10T08:57:41.084Z,9.95
2022-11-10T09:00:28.500Z,13.55
2022-11-10T09:03:19.286Z,12.75
2022-11-10T09:06:04.678Z,7.35
2022-11-10T09:08:49.903Z,10.10
2022-11-10T09:11:34.970Z,10.43
2022-11-10T09:14:20.721Z,9.45
2022-11-10T09:17:05.818Z,7.80
2022-11-10T09:19:50.950Z,10.73
2022-11-10T09:22:36.727Z,9.02
2022-11-10T09:25:22.761Z,9.50
2022-11-10T09:28:14.841Z,10.75
2022-11-10T09:31:00.106Z,9.57
2022-11-10T09:33:45.298Z,9.98
2022-11-10T09:36:30.549Z,10.57
2022-11-10T09:39:15.556Z,10.30
2022-11-10T09:42:00.643Z,12.23
2022-11-10T09:44:52.849Z,9.15
2022-11-10T09:48:15.001Z,7.47
2022-11-10T09:51:08.398Z,9.70
2022-11-10T09:54:25.214Z,10.40
2022-11-10T09:57:16.778Z,8.13
2022-11-10T10:00:04.005Z,12.63
2022-11-10T10:02:56.064Z,20.17
2022-11-10T10:06:02.277Z,8.45
2022-11-10T10:09:16.491Z,8.95
2022-11-10T10:15:08.872Z,9.30
2022-11-10T10:18:18.962Z,11.55
2022-11-10T10:21:26.640Z,7.80
2022-11-10T10:24:21.433Z,13.40
2022-11-10T10:27:14.979Z,10.23
2022-11-10T10:30:00.158Z,10.23
2022-11-10T10:32:45.381Z,10.13
2022-11-10T10:35:31.903Z,8.23
2022-11-10T10:38:25.667Z,8.13
2022-11-10T10:41:24.075Z,9.90
2022-11-10T10:44:19.795Z,9.80
2022-11-10T10:47:04.876Z,6.63
2022-11-10T10:49:50.129Z,8.63
2022-11-10T10:52:35.011Z,7.30
2022-11-10T10:55:20.020Z,9.02
2022-11-10T10:58:24.105Z,6.47
2022-11-10T11:01:15.873Z,9.55
2022-11-10T11:04:06.751Z,7.32
2022-11-10T11:07:01.000Z,10.10
2022-11-10T11:09:45.986Z,10.82
2022-11-10T11:12:34.224Z,10.25
2022-11-10T11:15:21.729Z,9.60
2022-11-10T11:18:15.771Z,7.00
2022-11-10T11:21:28.486Z,7.78
2022-11-10T11:24:28.295Z,8.15
2022-11-10T11:27:23.339Z,9.90
2022-11-10T11:30:08.508Z,7.57
2022-11-10T11:33:31.506Z,6.15
2022-11-10T11:36:21.259Z,11.57
2022-11-10T11:39:34.171Z,7.45
2022-11-10T11:42:33.382Z,11.07
2022-11-10T11:45:26.194Z,13.05
2022-11-10T11:48:48.724Z,6.88
2022-11-10T11:51:52.878Z,7.70
2022-11-10T11:55:07.434Z,7.20
2022-11-10T11:58:20.941Z,7.97
2022-11-10T12:01:37.045Z,4.70
2022-11-10T12:04:42.741Z,5.95
2022-11-10T12:07:43.041Z,8.75
2022-11-10T12:10:48.872Z,8.18
2022-11-10T12:13:47.761Z,7.20
2022-11-10T12:16:34.755Z,5.97
2022-11-10T12:19:28.356Z,9.05
2022-11-10T12:22:27.311Z,5.60
2022-11-10T12:25:21.420Z,6.80
2022-11-10T12:28:16.079Z,5.22
2022-11-10T12:31:04.388Z,7.90
2022-11-10T12:34:03.719Z,6.75
2022-11-10T12:36:50.955Z,5.53
2022-11-10T12:39:58.076Z,4.90
2022-11-10T12:42:59.493Z,8.77
2022-11-10T12:45:48.837Z,6.60
2022-11-10T12:48:45.396Z,7.75
2022-11-10T12:51:49.336Z,5.80
2022-11-10T12:57:26.174Z,6.63
2022-11-10T13:00:37.453Z,7.65
2022-11-10T13:03:37.111Z,7.97
2022-11-10T13:06:28.621Z,5.88
2022-11-10T13:09:26.878Z,5.13
2022-11-10T13:12:21.679Z,5.63
2022-11-10T13:15:35.414Z,9.48
2022-11-10T13:18:30.474Z,11.13
2022-11-10T13:21:15.376Z,8.40
2022-11-10T13:24:02.371Z,6.10
2022-11-10T13:26:55.945Z,8.57
2022-11-10T13:29:43.754Z,8.85
2022-11-10T13:32:35.535Z,10.52
2022-11-10T13:35:29.412Z,8.82
2022-11-10T13:38:34.308Z,6.60
2022-11-10T13:41:25.512Z,8.98
2022-11-10T13:44:32.457Z,6.40
2022-11-10T13:47:34.988Z,11.70
2022-11-10T13:50:29.584Z,9.93
2022-11-10T13:53:53.072Z,7.93
2022-11-10T13:56:44.265Z,7.25
2022-11-10T13:59:31.473Z,7.13
2022-11-10T14:02:38.998Z,10.18
2022-11-10T14:05:30.554Z,6.53
2022-11-10T14:08:21.650Z,7.90
2022-11-10T14:11:15.810Z,7.53
2022-11-10T14:14:11.576Z,8.57
2022-11-10T14:16:56.739Z,6.30
2022-11-10T14:19:44.095Z,10.38
2022-11-10T14:22:44.380Z,6.45
2022-11-10T14:25:39.903Z,8.85
2022-11-10T14:28:31.584Z,10.60
2022-11-10T14:31:21.069Z,6.18
2022-11-10T14:34:12.799Z,7.68
2022-11-10T14:37:01.036Z,7.20
2022-11-10T14:39:46.848Z,7.68
2022-11-10T14:42:33.834Z,6.93
2022-11-10T14:45:25.069Z,6.50
2022-11-10T14:48:19.169Z,9.07
2022-11-10T14:51:12.590Z,5.97
2022-11-10T14:53:58.242Z,7.57
2022-11-10T14:56:43.126Z,7.43
2022-11-10T14:59:28.175Z,6.38
2022-11-10T15:02:19.224Z,8.65
2022-11-10T15:05:05.163Z,9.43
2022-11-10T15:07:56.006Z,6.07
2022-11-10T15:10:41.186Z,7.70
2022-11-10T15:13:32.063Z,5.78
2022-11-10T15:16:26.480Z,6.82
2022-11-10T15:19:29.983Z,6.95
2022-11-10T15:22:21.764Z,7.15
2022-11-10T15:25:16.937Z,10.98
2022-11-10T15:28:04.344Z,5.47
2022-11-10T15:31:06.538Z,8.13
2022-11-10T15:33:54.860Z,7.05
2022-11-10T15:36:39.956Z,7.47
2022-11-10T15:39:27.131Z,6.53
2022-11-10T15:42:21.300Z,6.38
2022-11-10T15:45:06.543Z,9.43
2022-11-10T15:47:51.894Z,6.85
2022-11-10T15:50:37.168Z,6.45
2022-11-10T15:53:27.723Z,6.15
2022-11-10T15:56:16.867Z,7.10
2022-11-10T15:59:02.762Z,8.65
2022-11-10T16:01:48.419Z,9.15
2022-11-10T16:04:34.763Z,9.02
2022-11-10T16:07:19.818Z,9.40
2022-11-10T16:10:06.662Z,9.73
2022-11-10T16:12:51.930Z,8.90
2022-11-10T16:15:38.535Z,9.48
2022-11-10T16:18:26.196Z,6.70
2022-11-10T16:21:16.709Z,7.28
2022-11-10T16:24:01.612Z,9.77
2022-11-10T16:26:47.046Z,7.53
2022-11-10T16:29:33.282Z,7.18
2022-11-10T16:32:18.382Z,7.53
2022-11-10T16:35:03.814Z,12.57
2022-11-10T16:37:48.969Z,6.75
2022-11-10T16:40:34.761Z,6.80
2022-11-10T16:43:19.783Z,8.65
2022-11-10T16:46:13.737Z,10.40
2022-11-10T16:49:00.961Z,6.78
2022-11-10T16:51:49.012Z,8.88
2022-11-10T16:54:34.592Z,9.57
2022-11-10T16:57:20.798Z,7.10
2022-11-10T17:00:07.082Z,9.43
2022-11-10T17:03:02.095Z,9.00
2022-11-10T17:05:48.495Z,11.40
2022-11-10T17:08:35.406Z,8.52
2022-11-10T17:11:21.683Z,11.38
2022-11-10T17:14:07.414Z,12.32
2022-11-10T17:16:52.388Z,12.15
2022-11-10T17:19:37.538Z,9.32
2022-11-10T17:22:24.039Z,12.43
2022-11-10T17:25:18.516Z,9.25
2022-11-10T17:28:03.919Z,10.63
2022-11-10T17:30:49.348Z,11.55
2022-11-10T17:33:34.698Z,10.73
2022-11-10T17:36:22.341Z,11.52
2022-11-10T17:39:12.829Z,12.20
2022-11-10T17:41:58.895Z,14.68
2022-11-10T17:44:44.791Z,11.18
2022-11-10T17:47:30.101Z,11.38
2022-11-10T17:50:17.321Z,13.32
2022-11-10T17:53:09.542Z,16.55
2022-11-10T17:55:55.043Z,15.18
2022-11-10T17:58:40.369Z,10.82
2022-11-10T18:01:25.517Z,11.27
2022-11-10T18:04:13.600Z,8.57
2022-11-10T18:06:58.971Z,13.85
2022-11-10T18:09:50.183Z,19.05
2022-11-10T18:12:35.555Z,13.90
2022-11-10T18:15:20.759Z,13.60
2022-11-10T18:18:05.687Z,10.48
2022-11-10T18:20:50.901Z,12.85
2022-11-10T18:23:35.792Z,9.95
2022-11-10T18:26:20.937Z,9.45
2022-11-10T18:29:06.690Z,10.10
2022-11-10T18:31:51.726Z,12.35
2022-11-10T18:34:36.615Z,11.88
2022-11-10T18:37:21.570Z,9.63
2022-11-10T18:40:08.539Z,12.48
2022-11-10T18:42:58.551Z,8.80
2022-11-10T18:45:46.072Z,11.00
2022-11-10T18:48:36.148Z,12.43
2022-11-10T18:51:22.456Z,11.50
2022-11-10T18:54:08.322Z,8.70
2022-11-10T18:56:54.058Z,10.05
2022-11-10T18:59:39.180Z,12.32
2022-11-10T19:02:24.405Z,8.98
2022-11-10T19:05:09.729Z,12.50
2022-11-10T19:07:54.699Z,10.82
2022-11-10T19:10:42.981Z,10.32
2022-11-10T19:13:28.239Z,11.20
2022-11-10T19:16:15.544Z,13.70
2022-11-10T19:19:00.821Z,12.15
2022-11-10T19:21:46.150Z,12.00
2022-11-10T19:24:42.492Z,12.25
2022-11-10T19:27:36.311Z,11.82
2022-11-10T19:30:22.537Z,16.25
2022-11-10T19:33:07.727Z,12.05
2022-11-10T19:35:52.744Z,13.38
2022-11-10T19:38:38.382Z,9.63
2022-11-10T19:41:29.537Z,9.73
2022-11-10T19:44:14.679Z,11.77
2022-11-10T19:47:00.814Z,13.70
2022-11-10T19:49:45.911Z,12.23
2022-11-10T19:52:30.883Z,13.95
2022-11-10T19:55:15.911Z,16.08
2022-11-10T19:58:00.980Z,11.50
2022-11-10T20:00:47.652Z,12.85
2022-11-10T20:03:32.805Z,16.13
2022-11-10T20:06:21.180Z,12.02
2022-11-10T20:09:06.473Z,14.15
2022-11-10T20:11:51.315Z,13.88
2022-11-10T20:14:36.309Z,15.02
2022-11-10T20:17:21.713Z,13.55
2022-11-10T20:20:07.242Z,15.05
2022-11-10T20:22:52.433Z,14.30
2022-11-10T20:25:38.157Z,14.48
2022-11-10T20:28:23.377Z,15.75
2022-11-10T20:31:12.772Z,11.05
2022-11-10T20:33:58.196Z,13.02
2022-11-10T20:36:43.557Z,14.70
2022-11-10T20:39:28.642Z,11.40
2022-11-10T20:42:14.156Z,17.58
2022-11-10T20:44:59.519Z,12.80
2022-11-10T20:47:44.575Z,12.98
2022-11-10T20:50:29.531Z,15.15
2022-11-10T20:53:14.563Z,13.52
2022-11-10T20:56:01.776Z,16.92
2022-11-10T20:58:47.244Z,14.38
2022-11-10T21:01:33.464Z,14.40
2022-11-10T21:04:19.299Z,17.67
2022-11-10T21:07:04.720Z,18.08
2022-11-10T21:09:49.918Z,15.45
2022-11-10T21:12:50.058Z,14.80
2022-11-10T21:15:38.824Z,14.77
2022-11-10T21:18:32.693Z,15.85
2022-11-10T21:21:27.720Z,16.00
2022-11-10T21:24:12.892Z,14.60
2022-11-10T21:26:58.330Z,18.75
2022-11-10T21:29:43.841Z,12.05
2022-11-10T21:32:29.218Z,12.80
2022-11-10T21:35:15.232Z,14.50
2022-11-10T21:38:00.164Z,13.32
2022-11-10T21:40:45.094Z,16.65
2022-11-10T21:43:30.468Z,13.90
2022-11-10T21:46:15.957Z,15.82
2022-11-10T21:49:07.113Z,15.43
2022-11-10T21:51:53.197Z,13.23
2022-11-10T21:54:38.390Z,13.48
2022-11-10T21:57:23.176Z,17.23
2022-11-10T22:00:09.677Z,15.85
2022-11-10T22:03:03.470Z,15.02
2022-11-10T22:05:48.543Z,16.08
2022-11-10T22:08:35.041Z,10.93
2022-11-10T22:11:39.718Z,15.52
2022-11-10T22:14:43.443Z,12.32
2022-11-10T22:17:47.286Z,18.08
2022-11-10T22:23:17.228Z,15.48
2022-11-10T22:26:03.093Z,14.38
2022-11-10T22:28:48.164Z,14.15
2022-11-10T22:31:33.741Z,12.40
2022-11-10T22:34:19.760Z,13.75
2022-11-10T22:37:04.692Z,13.48
2022-11-10T22:40:08.344Z,12.52
2022-11-10T22:45:57.761Z,13.13
2022-11-10T22:48:43.006Z,17.85
2022-11-10T22:51:29.760Z,12.25
2022-11-10T22:54:17.734Z,13.82
2022-11-10T22:57:02.890Z,16.80
2022-11-10T22:59:47.754Z,16.75
2022-11-10T23:02:32.827Z,14.95
2022-11-10T23:05:17.933Z,13.80
2022-11-10T23:08:03.393Z,16.33
2022-11-10T23:10:48.397Z,13.15
2022-11-10T23:13:34.684Z,15.00
2022-11-10T23:16:25.149Z,12.93
2022-11-10T23:19:10.916Z,16.25
2022-11-10T23:21:56.217Z,12.82
2022-11-10T23:24:41.296Z,15.90
2022-11-10T23:27:26.215Z,16.58
2022-11-10T23:30:11.799Z,14.82
2022-11-10T23:32:56.870Z,18.05
2022-11-10T23:35:41.773Z,18.08
2022-11-10T23:38:30.343Z,21.17
2022-11-10T23:41:21.054Z,15.90
2022-11-10T23:44:05.796Z,15.93
2022-11-10T23:46:50.708Z,16.65
2022-11-10T23:49:35.670Z,15.73
2022-11-10T23:52:20.794Z,15.38
2022-11-10T23:55:06.292Z,15.63
2022-11-10T23:57:51.390Z,15.85
